Time;durP1;ratioP1;P1;durP2;ratioP2;P2;SDS_P1;SDS_P2;PMS_P1;PMS_P2;Temp;Humidity;BMP_temperature;BMP_pressure;BME280_temperature;BME280_humidity;BME280_pressure;Samples;Min_cycle;Max_cycle;Signal;HPM_P1;HPM_P2
2021/09/10 05:28:36;;;;;;;12.98;4.25;;;20.70;72.60;;;;;;1055654;27;20250;-55
2021/09/10 05:29:07;;;;;;;12.73;5.15;;;20.70;73.20;;;;;;1055710;28;20028;-52
2021/09/10 05:29:37;;;;;;;15.70;5.53;;;20.70;73.50;;;;;;1055757;28;20024;-56
2021/09/10 05:30:08;;;;;;;12.38;4.63;;;20.70;73.50;;;;;;1055730;28;20478;-58
2021/09/10 05:30:38;;;;;;;10.20;6.07;;;20.70;73.50;;;;;;1055887;28;20156;-56
2021/09/10 05:31:09;;;;;;;11.60;5.47;;;20.70;73.30;;;;;;1055650;28;20019;-58
2021/09/10 05:31:40;;;;;;;15.90;4.78;;;20.70;73.70;;;;;;1055787;28;20012;-58
2021/09/10 05:32:10;;;;;;;16.05;4.82;;;20.70;73.40;;;;;;1055602;28;20087;-53
2021/09/10 05:32:41;;;;;;;14.55;4.93;;;20.70;73.40;;;;;;1055867;28;20103;-58
2021/09/10 05:33:11;;;;;;;14.48;5.55;;;20.70;73.90;;;;;;1055742;28;20490;-59
2021/09/10 05:33:42;;;;;;;12.40;5.13;;;20.70;73.50;;;;;;1055666;28;20438;-54
2021/09/10 05:34:12;;;;;;;18.20;5.30;;;20.70;73.30;;;;;;1055805;28;20012;-54
2021/09/10 05:34:43;;;;;;;12.77;5.25;;;20.70;73.20;;;;;;1055900;28;20036;-59
2021/09/10 05:35:15;;;;;;;14.98;5.38;;;20.70;73.60;;;;;;1055550;28;20015;-57
2021/09/10 05:35:45;;;;;;;6.90;3.97;;;20.70;73.60;;;;;;1053880;28;20381;-58
2021/09/10 05:36:16;;;;;;;13.90;5.30;;;20.70;73.90;;;;;;1051583;28;20019;-59
2021/09/10 05:36:46;;;;;;;14.82;4.93;;;20.70;74.10;;;;;;1051537;28;20384;-58
2021/09/10 05:37:17;;;;;;;14.13;4.38;;;20.70;73.80;;;;;;1051483;28;20009;-58
2021/09/10 05:37:47;;;;;;;12.85;5.65;;;20.70;73.70;;;;;;1051318;28;20026;-59
2021/09/10 05:38:18;;;;;;;13.13;4.72;;;20.70;73.40;;;;;;1051524;28;20008;-58
2021/09/10 05:38:49;;;;;;;8.52;4.57;;;20.80;73.70;;;;;;1054430;28;20012;-56
2021/09/10 05:39:21;;;;;;;16.00;5.68;;;20.70;73.30;;;;;;1055655;28;20016;-59
2021/09/10 05:39:51;;;;;;;16.35;5.43;;;20.70;73.10;;;;;;1055822;28;20466;-58
2021/09/10 05:40:22;;;;;;;13.93;4.47;;;20.80;73.80;;;;;;1055663;28;20024;-59
2021/09/10 05:40:52;;;;;;;9.73;4.68;;;20.80;73.50;;;;;;1055816;28;20023;-59
2021/09/10 05:41:23;;;;;;;13.82;4.30;;;20.80;73.20;;;;;;1055659;28;20066;-58
2021/09/10 05:41:53;;;;;;;12.45;4.93;;;20.80;73.00;;;;;;1055415;28;20077;-59
2021/09/10 05:42:24;;;;;;;11.13;5.20;;;20.80;72.90;;;;;;1055743;28;20020;-57
2021/09/10 05:42:54;;;;;;;11.68;4.15;;;20.80;72.80;;;;;;1055818;28;20099;-55
2021/09/10 05:43:25;;;;;;;20.02;4.80;;;20.80;72.70;;;;;;1055747;28;20020;-57
2021/09/10 05:43:56;;;;;;;10.90;4.40;;;20.80;72.80;;;;;;1055655;28;20036;-58
2021/09/10 05:44:26;;;;;;;9.20;5.20;;;20.80;72.70;;;;;;1023967;27;20075;-59
2021/09/10 05:44:57;;;;;;;10.00;5.20;;;20.80;72.70;;;;;;1047285;28;20013;-57
2021/09/10 05:45:27;;;;;;;17.17;5.22;;;20.80;72.60;;;;;;1047103;28;20447;-58
2021/09/10 05:45:58;;;;;;;15.27;4.10;;;20.80;72.50;;;;;;1047190;28;20016;-57
2021/09/10 05:46:28;;;;;;;18.40;4.95;;;20.80;72.60;;;;;;1047147;28;20021;-55
2021/09/10 05:46:59;;;;;;;14.38;4.70;;;20.80;72.50;;;;;;1047245;28;20150;-58
2021/09/10 05:47:29;;;;;;;17.08;4.57;;;20.80;72.40;;;;;;1047299;28;20020;-59
2021/09/10 05:48:00;;;;;;;14.15;4.85;;;20.80;72.50;;;;;;1045082;28;20052;-60
2021/09/10 05:48:30;;;;;;;29.35;5.07;;;20.80;72.40;;;;;;1047154;28;20119;-57
2021/09/10 05:49:03;;;;;;;14.93;5.10;;;20.80;72.50;;;;;;1047288;28;20092;-58
2021/09/10 05:49:33;;;;;;;17.33;5.35;;;20.80;72.50;;;;;;1045042;28;20098;-58
2021/09/10 05:50:04;;;;;;;19.30;6.85;;;20.90;73.50;;;;;;1034510;28;20074;-57
2021/09/10 05:50:35;;;;;;;30.90;7.32;;;20.90;73.20;;;;;;1041258;28;20036;-54
2021/09/10 05:51:08;;;;;;;18.83;6.22;;;20.90;73.30;;;;;;1047186;28;20020;-58
2021/09/10 05:51:38;;;;;;;28.08;6.53;;;20.90;73.30;;;;;;1047218;28;20025;-54
2021/09/10 05:52:10;;;;;;;16.42;5.63;;;20.90;73.10;;;;;;1044857;28;20024;-57
2021/09/10 05:52:41;;;;;;;14.38;5.63;;;20.90;73.20;;;;;;1047322;28;20020;-58
2021/09/10 05:53:11;;;;;;;25.50;5.68;;;20.90;72.80;;;;;;1047385;28;20395;-58
2021/09/10 05:53:42;;;;;;;25.45;6.20;;;20.90;72.80;;;;;;1047066;28;20455;-60
2021/09/10 05:54:12;;;;;;;25.80;5.57;;;20.90;73.10;;;;;;1047210;28;20025;-59
2021/09/10 05:54:43;;;;;;;19.92;6.28;;;20.90;73.10;;;;;;1047341;28;20019;-60
2021/09/10 05:55:14;;;;;;;16.90;5.63;;;20.90;73.70;;;;;;1047279;28;20017;-56
2021/09/10 05:55:45;;;;;;;21.98;7.78;;;20.90;74.10;;;;;;1047246;28;20101;-59
2021/09/10 05:56:15;;;;;;;18.60;6.80;;;20.90;73.50;;;;;;1047217;28;20008;-59
2021/09/10 05:56:46;;;;;;;21.27;6.53;;;20.90;73.40;;;;;;1047362;28;20016;-59
2021/09/10 05:57:16;;;;;;;28.13;7.30;;;20.90;73.40;;;;;;1047255;28;20360;-59
2021/09/10 05:57:47;;;;;;;23.38;6.70;;;20.90;74.30;;;;;;1047203;28;20051;-59
2021/09/10 05:58:17;;;;;;;24.38;7.95;;;20.90;73.60;;;;;;1047153;28;20020;-59
2021/09/10 05:58:48;;;;;;;28.63;7.55;;;20.90;73.40;;;;;;1047102;28;20016;-61
2021/09/10 05:59:18;;;;;;;16.77;6.70;;;20.90;73.40;;;;;;1047257;28;20074;-60
2021/09/10 05:59:49;;;;;;;22.30;8.02;;;20.90;73.40;;;;;;1047171;28;20067;-60
2021/09/10 06:00:20;;;;;;;21.40;6.97;;;20.90;74.20;;;;;;1047168;28;20067;-58
2021/09/10 06:00:50;;;;;;;18.23;7.13;;;20.90;74.00;;;;;;1047177;28;20353;-61
2021/09/10 06:01:21;;;;;;;17.33;6.65;;;20.90;73.90;;;;;;1047268;28;20021;-60
2021/09/10 06:01:51;;;;;;;25.17;9.00;;;20.90;73.40;;;;;;1046905;28;20020;-61
2021/09/10 06:02:22;;;;;;;22.98;6.82;;;20.90;73.30;;;;;;1047180;28;20021;-60
2021/09/10 06:02:53;;;;;;;25.13;8.57;;;20.90;73.50;;;;;;1047220;28;20467;-58
2021/09/10 06:03:23;;;;;;;20.70;8.05;;;20.90;73.50;;;;;;1047232;28;20021;-60
2021/09/10 06:03:54;;;;;;;19.08;9.75;;;20.90;73.80;;;;;;1047178;28;20047;-61
2021/09/10 06:04:24;;;;;;;18.20;8.15;;;20.90;74.20;;;;;;1047214;28;20047;-59
2021/09/10 06:04:55;;;;;;;19.40;8.73;;;20.90;74.40;;;;;;1047360;28;20528;-57
2021/09/10 06:05:25;;;;;;;20.45;10.10;;;20.90;74.30;;;;;;1047336;28;20071;-57
2021/09/10 06:05:56;;;;;;;35.42;9.80;;;20.90;76.00;;;;;;1046932;28;20021;-57
2021/09/10 06:06:26;;;;;;;25.35;10.10;;;20.90;76.30;;;;;;1046361;28;20031;-56
2021/09/10 06:06:57;;;;;;;23.88;8.80;;;20.90;76.20;;;;;;1046899;28;20013;-58
2021/09/10 06:07:28;;;;;;;22.98;9.70;;;20.90;76.60;;;;;;1042716;28;20108;-60
2021/09/10 06:07:58;;;;;;;25.45;9.23;;;20.90;77.00;;;;;;1042806;28;20010;-59
2021/09/10 06:08:29;;;;;;;17.48;10.25;;;20.90;77.40;;;;;;1042688;28;20072;-55
2021/09/10 06:08:59;;;;;;;18.67;8.73;;;20.80;77.40;;;;;;1037692;28;20622;-56
2021/09/10 06:09:32;;;;;;;20.50;8.90;;;20.80;76.70;;;;;;1025477;28;20009;-57
2021/09/10 06:10:03;;;;;;;33.58;9.70;;;20.90;76.00;;;;;;1038402;28;20104;-58
2021/09/10 06:10:33;;;;;;;21.52;10.02;;;20.90;76.40;;;;;;1044406;28;20028;-57
2021/09/10 06:11:05;;;;;;;25.60;8.93;;;20.90;76.20;;;;;;1047346;28;20021;-57
2021/09/10 06:11:36;;;;;;;22.75;10.20;;;20.90;75.80;;;;;;1047308;28;20446;-59
2021/09/10 06:12:06;;;;;;;22.33;8.90;;;20.80;75.60;;;;;;1047011;28;20023;-60
2021/09/10 06:12:37;;;;;;;23.88;9.10;;;20.90;75.40;;;;;;1047151;28;20009;-55
2021/09/10 06:13:11;;;;;;;33.53;11.52;;;20.90;75.20;;;;;;1047248;28;20019;-59
2021/09/10 06:13:41;;;;;;;16.80;8.48;;;20.90;75.30;;;;;;1047333;28;20096;-59
2021/09/10 06:14:12;;;;;;;23.92;10.38;;;20.90;74.60;;;;;;1047241;28;20056;-58
2021/09/10 06:14:42;;;;;;;24.25;10.73;;;20.90;74.30;;;;;;1047176;28;20489;-59
2021/09/10 06:15:13;;;;;;;19.45;9.23;;;20.90;74.60;;;;;;1047344;28;20364;-59
2021/09/10 06:15:44;;;;;;;22.17;9.25;;;20.90;74.50;;;;;;1047273;28;20051;-59
2021/09/10 06:16:14;;;;;;;25.77;9.98;;;20.90;74.70;;;;;;1047273;28;20475;-59
2021/09/10 06:16:45;;;;;;;20.50;9.02;;;20.90;74.80;;;;;;1047234;28;20031;-59
2021/09/10 06:17:15;;;;;;;33.67;11.30;;;20.90;74.80;;;;;;1032506;28;20025;-55
2021/09/10 14:37:35;;;;;;;44.20;8.27;;;20.90;74.70;;;;;;1037515821;27;20656;-58
2021/09/10 22:44:01;;;;;;;5.32;3.55;;;21.80;71.20;;;;;;1000456;27;20625;-60
2021/09/10 22:44:32;;;;;;;6.40;4.57;;;21.50;73.80;;;;;;982083;28;72140;-59
2021/09/10 23:34:39;;;;;;;10.27;5.13;;;21.50;73.90;;;;;;104987421;27;20651;-53
